Time;durP1;ratioP1;P1;durP2;ratioP2;P2;SDS_P1;SDS_P2;PMS_P1;PMS_P2;Temp;Humidity;BMP_temperature;BMP_pressure;BME280_temperature;BME280_humidity;BME280_pressure;Samples;Min_cycle;Max_cycle;Signal;HPM_P1;HPM_P2
2024/01/11 00:01:53;;;;;;;27.48;14.45;;;-6.90;61.90;;;;;;4904745;28;114855;-81
2024/01/11 00:04:20;;;;;;;18.17;8.85;;;-6.90;62.00;;;;;;4921339;28;114711;-80
2024/01/11 00:06:47;;;;;;;28.10;11.77;;;-6.90;62.00;;;;;;4925358;28;114403;-80
2024/01/11 00:09:15;;;;;;;24.25;11.13;;;-6.90;62.00;;;;;;4924518;28;115306;-80
2024/01/11 00:11:42;;;;;;;26.00;10.88;;;-6.90;62.00;;;;;;4922977;28;114644;-81
2024/01/11 00:14:09;;;;;;;30.85;9.80;;;-6.80;62.00;;;;;;4925168;28;114455;-81
2024/01/11 00:16:37;;;;;;;23.10;8.60;;;-6.90;62.10;;;;;;4923778;28;114489;-81
2024/01/11 00:19:04;;;;;;;24.08;12.00;;;-6.80;62.20;;;;;;4939525;28;117193;-79
2024/01/11 00:21:31;;;;;;;20.85;9.82;;;-6.80;62.20;;;;;;4942617;28;114644;-80
2024/01/11 00:23:59;;;;;;;25.00;11.77;;;-6.80;62.30;;;;;;4928309;28;114635;-79
2024/01/11 00:26:26;;;;;;;20.33;10.10;;;-6.80;62.30;;;;;;4928235;28;114863;-79
2024/01/11 00:28:54;;;;;;;23.02;10.02;;;-6.80;62.40;;;;;;4926567;28;115209;-80
2024/01/11 00:31:21;;;;;;;27.85;12.05;;;-6.80;62.40;;;;;;4909888;28;117379;-81
2024/01/11 00:33:48;;;;;;;17.35;6.90;;;-6.70;62.30;;;;;;4927888;28;115142;-80
2024/01/11 00:36:22;;;;;;;33.88;17.77;;;-6.70;62.30;;;;;;4927054;28;114488;-81
2024/01/11 00:38:52;;;;;;;29.80;11.95;;;-6.70;62.40;;;;;;4926862;28;116550;-79
2024/01/11 00:41:19;;;;;;;33.65;13.30;;;-6.70;62.30;;;;;;4941975;28;114633;-80
2024/01/11 00:43:47;;;;;;;25.77;11.98;;;-6.60;62.20;;;;;;4926749;28;114566;-79
2024/01/11 00:46:14;;;;;;;25.52;9.30;;;-6.70;62.00;;;;;;4943248;28;114642;-80
2024/01/11 00:48:41;;;;;;;39.17;16.17;;;-6.70;62.10;;;;;;4909919;28;115062;-80
2024/01/11 00:51:09;;;;;;;26.77;12.88;;;-6.70;62.20;;;;;;4942028;28;114646;-79
2024/01/11 00:53:36;;;;;;;29.85;9.00;;;-6.70;62.20;;;;;;4927367;28;114529;-79
2024/01/11 00:56:04;;;;;;;32.25;8.68;;;-6.70;62.00;;;;;;4910721;28;114400;-79
2024/01/11 00:58:31;;;;;;;26.95;11.32;;;-6.70;62.00;;;;;;4926445;28;115861;-79
2024/01/11 01:00:58;;;;;;;13.07;7.75;;;-6.70;62.10;;;;;;4925497;28;116170;-80
2024/01/11 01:03:26;;;;;;;13.73;6.30;;;-6.80;62.10;;;;;;4926516;28;114506;-79
2024/01/11 01:05:53;;;;;;;22.33;10.13;;;-6.70;62.10;;;;;;4927008;28;114612;-79
2024/01/11 01:08:21;;;;;;;21.20;10.00;;;-6.70;62.00;;;;;;4934495;28;115104;-78
2024/01/11 01:10:48;;;;;;;24.02;11.85;;;-6.80;61.90;;;;;;4926068;28;114800;-78
2024/01/11 01:13:19;;;;;;;25.63;13.38;;;-6.80;61.90;;;;;;4927866;28;114606;-79
2024/01/11 01:15:46;;;;;;;19.40;10.40;;;-6.80;61.90;;;;;;4927513;28;114319;-78
2024/01/11 01:18:13;;;;;;;26.30;11.48;;;-6.90;61.90;;;;;;4926181;28;116145;-79
2024/01/11 01:20:41;;;;;;;19.88;8.27;;;-6.90;62.00;;;;;;4926890;28;114631;-79
2024/01/11 01:23:08;;;;;;;21.60;9.63;;;-6.90;62.00;;;;;;4927201;28;114540;-79
2024/01/11 01:25:35;;;;;;;22.90;9.68;;;-6.90;62.00;;;;;;4927475;28;115449;-81
2024/01/11 01:28:03;;;;;;;20.08;8.13;;;-6.90;61.90;;;;;;4941491;28;115124;-80
2024/01/11 01:30:30;;;;;;;17.27;7.20;;;-6.90;62.00;;;;;;4941141;28;114690;-80
2024/01/11 01:33:00;;;;;;;16.95;8.40;;;-6.90;62.00;;;;;;4925431;28;114283;-80
2024/01/11 01:35:28;;;;;;;18.58;8.98;;;-6.90;62.10;;;;;;4926995;28;114445;-80
2024/01/11 01:37:56;;;;;;;15.40;7.80;;;-6.90;62.10;;;;;;4941910;28;114361;-81
2024/01/11 01:40:24;;;;;;;16.90;8.48;;;-6.90;62.20;;;;;;4924993;28;117670;-81
2024/01/11 01:42:57;;;;;;;27.73;9.32;;;-6.90;62.10;;;;;;4941647;28;114480;-81
2024/01/11 01:45:26;;;;;;;15.02;7.55;;;-6.90;62.20;;;;;;4940789;28;114688;-80
2024/01/11 01:47:54;;;;;;;20.05;9.35;;;-6.90;62.00;;;;;;4924862;28;115286;-80
2024/01/11 01:50:22;;;;;;;21.25;10.18;;;-6.90;61.90;;;;;;4925544;28;115268;-80
2024/01/11 01:52:51;;;;;;;23.50;9.52;;;-6.90;62.10;;;;;;4909883;28;114494;-80
2024/01/11 01:55:19;;;;;;;21.88;7.35;;;-6.90;62.10;;;;;;4941692;28;114815;-80
2024/01/11 01:57:46;;;;;;;16.77;7.55;;;-6.90;62.00;;;;;;4926011;28;115366;-80
2024/01/11 02:00:14;;;;;;;22.00;11.07;;;-6.90;62.10;;;;;;4924570;28;115472;-80
2024/01/11 02:02:45;;;;;;;22.42;10.30;;;-6.90;62.20;;;;;;4941776;28;114890;-81
2024/01/11 02:05:14;;;;;;;27.38;10.38;;;-6.90;62.10;;;;;;4925796;28;114373;-81
2024/01/11 02:07:41;;;;;;;15.65;8.63;;;-6.90;62.10;;;;;;4924254;28;115258;-80
2024/01/11 02:10:09;;;;;;;14.35;6.65;;;-6.90;62.20;;;;;;4940879;28;115192;-81
2024/01/11 02:12:39;;;;;;;24.23;9.75;;;-6.80;62.20;;;;;;4926466;28;114362;-79
2024/01/11 02:15:06;;;;;;;14.20;7.88;;;-6.90;62.20;;;;;;4924901;28;114697;-80
2024/01/11 02:17:34;;;;;;;19.23;7.45;;;-6.80;62.10;;;;;;4924242;28;116405;-79
2024/01/11 02:20:03;;;;;;;19.42;7.65;;;-6.90;62.10;;;;;;4940231;28;115796;-78
2024/01/11 02:22:39;;;;;;;15.82;7.28;;;-6.80;62.30;;;;;;4926626;28;114655;-79
2024/01/11 02:25:06;;;;;;;20.05;10.18;;;-6.80;62.30;;;;;;4909733;28;114974;-79
2024/01/11 02:27:49;;;;;;;11.40;7.65;;;-6.80;62.30;;;;;;4939952;28;114988;-80
2024/01/11 02:30:17;;;;;;;20.30;9.85;;;-6.80;62.30;;;;;;4924314;28;117822;-79
2024/01/11 02:32:48;;;;;;;14.23;6.70;;;-6.70;62.20;;;;;;4925664;28;114567;-79
2024/01/11 02:35:16;;;;;;;15.43;6.65;;;-6.70;62.30;;;;;;4925206;28;114605;-80
2024/01/11 02:37:44;;;;;;;20.45;7.10;;;-6.60;62.30;;;;;;4924157;28;115198;-79
2024/01/11 02:40:12;;;;;;;22.77;8.80;;;-6.70;62.40;;;;;;4908112;28;114699;-79
2024/01/11 02:42:40;;;;;;;12.88;5.57;;;-6.70;62.40;;;;;;4928101;28;114535;-79
2024/01/11 02:45:07;;;;;;;27.45;13.32;;;-6.60;62.30;;;;;;4925831;28;114459;-79
2024/01/11 02:47:35;;;;;;;27.13;12.27;;;-6.60;62.20;;;;;;4905117;28;115146;-79
2024/01/11 02:50:02;;;;;;;14.60;6.78;;;-6.60;62.10;;;;;;4906347;28;115076;-79
2024/01/11 02:52:30;;;;;;;20.35;8.15;;;-6.70;61.90;;;;;;4906909;28;114572;-79
2024/01/11 02:54:57;;;;;;;18.92;7.00;;;-6.80;61.90;;;;;;4906886;28;114396;-79
2024/01/11 02:57:25;;;;;;;14.23;7.47;;;-6.80;62.00;;;;;;4905459;28;115555;-79
2024/01/11 02:59:52;;;;;;;16.02;7.55;;;-6.80;62.00;;;;;;4904613;28;114898;-78
2024/01/11 03:02:19;;;;;;;10.85;5.85;;;-6.80;62.00;;;;;;4889779;28;114633;-79
2024/01/11 03:04:49;;;;;;;20.83;9.07;;;-6.70;62.10;;;;;;4907006;28;115131;-79
2024/01/11 03:07:17;;;;;;;22.00;8.73;;;-6.80;62.20;;;;;;4888602;28;115260;-78
2024/01/11 03:09:44;;;;;;;11.65;5.47;;;-6.80;62.10;;;;;;4906030;28;114770;-79
2024/01/11 03:12:12;;;;;;;20.75;10.18;;;-6.70;62.10;;;;;;4907062;28;114660;-79
2024/01/11 03:14:39;;;;;;;16.92;6.28;;;-6.70;62.10;;;;;;4906299;28;114650;-79
2024/01/11 03:17:06;;;;;;;13.68;6.35;;;-6.70;62.10;;;;;;4905764;28;115272;-79
2024/01/11 03:19:34;;;;;;;14.65;6.97;;;-6.70;62.20;;;;;;4904571;28;114828;-80
2024/01/11 03:22:06;;;;;;;16.63;7.65;;;-6.60;62.20;;;;;;4906002;28;114685;-80
2024/01/11 03:24:37;;;;;;;8.88;5.28;;;-6.70;62.20;;;;;;4905426;28;114612;-80
2024/01/11 03:27:05;;;;;;;21.35;6.32;;;-6.60;62.20;;;;;;4905039;28;114460;-80
2024/01/11 03:29:33;;;;;;;9.73;5.95;;;-6.70;62.20;;;;;;4905525;28;115852;-79
2024/01/11 03:32:00;;;;;;;16.02;5.88;;;-6.60;62.20;;;;;;4906836;28;114540;-78
2024/01/11 03:34:28;;;;;;;9.93;4.72;;;-6.60;62.20;;;;;;4906736;28;114456;-78
2024/01/11 03:36:55;;;;;;;10.85;6.03;;;-6.60;62.30;;;;;;4905906;28;115052;-78
2024/01/11 03:39:24;;;;;;;12.35;6.60;;;-6.60;62.30;;;;;;4905790;28;115274;-79
2024/01/11 03:41:52;;;;;;;15.43;7.10;;;-6.60;62.30;;;;;;4904957;28;114605;-79
2024/01/11 03:44:19;;;;;;;19.55;6.90;;;-6.50;62.20;;;;;;4889144;28;114763;-80
2024/01/11 03:46:46;;;;;;;18.77;6.70;;;-6.50;62.10;;;;;;4887889;28;115009;-80
2024/01/11 03:49:14;;;;;;;12.23;6.28;;;-6.50;62.10;;;;;;4888347;28;114603;-79
2024/01/11 03:51:41;;;;;;;11.00;5.53;;;-6.50;62.10;;;;;;4906170;28;114785;-80
2024/01/11 03:54:08;;;;;;;11.88;5.13;;;-6.50;62.10;;;;;;4889671;28;114821;-80
2024/01/11 03:56:39;;;;;;;17.52;6.45;;;-6.60;62.10;;;;;;4907328;28;115101;-80
2024/01/11 03:59:07;;;;;;;8.07;4.30;;;-6.60;62.20;;;;;;4907516;28;115067;-80
2024/01/11 04:01:40;;;;;;;18.08;7.28;;;-6.60;62.20;;;;;;4876119;28;114635;-80
2024/01/11 04:04:08;;;;;;;12.40;7.40;;;-6.60;62.20;;;;;;4908254;28;114773;-80
2024/01/11 04:06:36;;;;;;;21.08;9.80;;;-6.60;62.20;;;;;;4908687;28;115103;-80
2024/01/11 04:09:03;;;;;;;12.68;7.85;;;-6.60;62.20;;;;;;4875536;28;114853;-80
2024/01/11 04:11:31;;;;;;;14.25;7.13;;;-6.60;62.20;;;;;;4907568;28;114866;-81
2024/01/11 04:13:58;;;;;;;15.82;7.03;;;-6.60;62.10;;;;;;4909341;28;115081;-81
2024/01/11 04:16:26;;;;;;;14.27;6.18;;;-6.70;62.10;;;;;;4908454;28;115286;-79
2024/01/11 04:18:53;;;;;;;19.13;9.07;;;-6.70;62.20;;;;;;4893643;28;117650;-81
2024/01/11 04:21:28;;;;;;;18.95;8.63;;;-6.70;62.20;;;;;;4896464;28;114433;-80
2024/01/11 04:23:57;;;;;;;15.27;6.50;;;-6.70;62.20;;;;;;4907791;28;114692;-80
2024/01/11 04:26:24;;;;;;;12.73;6.82;;;-6.70;62.10;;;;;;4907042;28;115419;-80
2024/01/11 04:28:52;;;;;;;16.33;8.70;;;-6.70;62.20;;;;;;4906704;28;117040;-80
2024/01/11 04:31:22;;;;;;;13.52;5.53;;;-6.70;62.20;;;;;;4908791;28;114660;-80
2024/01/11 04:33:49;;;;;;;16.65;9.38;;;-6.70;62.10;;;;;;4908621;28;114609;-80
2024/01/11 04:36:17;;;;;;;20.65;7.70;;;-6.70;62.20;;;;;;4907706;28;115228;-79
2024/01/11 04:38:44;;;;;;;13.93;6.75;;;-6.80;62.10;;;;;;4908076;28;114653;-80
2024/01/11 04:41:12;;;;;;;12.93;7.50;;;-6.80;62.00;;;;;;4908993;28;114451;-80
2024/01/11 04:43:41;;;;;;;10.00;5.93;;;-6.80;62.00;;;;;;4876092;28;114712;-80
2024/01/11 04:46:21;;;;;;;16.67;7.63;;;-6.80;62.00;;;;;;4906766;28;115364;-80
2024/01/11 04:48:49;;;;;;;16.10;6.18;;;-6.80;62.00;;;;;;4907878;28;114813;-80
2024/01/11 04:51:17;;;;;;;10.82;5.10;;;-6.80;62.00;;;;;;4907610;28;114833;-80
2024/01/11 04:53:45;;;;;;;11.65;6.53;;;-6.80;62.00;;;;;;4909123;28;114388;-79
2024/01/11 04:56:14;;;;;;;17.63;6.10;;;-6.90;62.00;;;;;;4907546;28;116361;-80
2024/01/11 04:58:42;;;;;;;16.73;7.40;;;-6.90;62.00;;;;;;4907838;28;115475;-80
2024/01/11 05:01:14;;;;;;;20.00;8.55;;;-6.90;62.10;;;;;;4891064;28;115091;-80
2024/01/11 05:03:42;;;;;;;22.90;7.68;;;-6.90;62.10;;;;;;4906816;28;114541;-80
2024/01/11 05:06:20;;;;;;;19.67;8.82;;;-6.90;62.10;;;;;;4905999;28;115114;-80
2024/01/11 05:08:51;;;;;;;15.55;7.63;;;-6.90;62.20;;;;;;4906246;28;114759;-80
2024/01/11 05:11:21;;;;;;;15.80;8.35;;;-6.80;62.20;;;;;;4907998;28;114461;-80
2024/01/11 05:13:48;;;;;;;16.50;7.00;;;-6.90;62.10;;;;;;4908411;28;114334;-80
2024/01/11 05:16:28;;;;;;;10.43;7.25;;;-6.90;62.00;;;;;;4907318;28;116481;-79
2024/01/11 05:18:57;;;;;;;22.20;9.15;;;-6.90;62.00;;;;;;4907874;28;114695;-79
2024/01/11 05:21:25;;;;;;;18.95;7.82;;;-6.90;62.00;;;;;;4908180;28;114328;-79
2024/01/11 05:23:53;;;;;;;18.98;10.35;;;-6.90;62.00;;;;;;4908503;28;115198;-79
2024/01/11 05:26:21;;;;;;;14.18;7.20;;;-6.90;62.00;;;;;;4907186;28;115191;-80
2024/01/11 05:28:48;;;;;;;17.85;7.55;;;-6.90;62.00;;;;;;4889902;28;115900;-80
2024/01/11 05:31:16;;;;;;;25.27;9.45;;;-6.90;62.00;;;;;;4891706;28;114486;-79
2024/01/11 05:33:45;;;;;;;15.52;7.55;;;-7.00;62.00;;;;;;4907133;28;114621;-79
2024/01/11 05:36:13;;;;;;;26.58;12.15;;;-7.00;62.10;;;;;;4906283;28;115045;-79
2024/01/11 05:38:40;;;;;;;14.75;7.78;;;-7.00;62.00;;;;;;4890073;28;115748;-80
2024/01/11 05:41:08;;;;;;;10.15;6.00;;;-7.10;61.70;;;;;;4909224;28;114852;-80
2024/01/11 05:43:38;;;;;;;12.13;7.35;;;-7.20;61.80;;;;;;4926233;28;114533;-80
2024/01/11 05:46:07;;;;;;;14.07;7.68;;;-7.20;61.90;;;;;;4924670;28;115052;-80
2024/01/11 05:48:34;;;;;;;12.32;5.97;;;-7.20;62.00;;;;;;4913230;28;114758;-79
2024/01/11 05:51:02;;;;;;;14.40;7.57;;;-7.20;62.20;;;;;;4924594;28;114717;-80
2024/01/11 05:53:29;;;;;;;12.77;5.68;;;-7.10;62.20;;;;;;4927148;28;114960;-80
2024/01/11 05:55:56;;;;;;;12.10;5.43;;;-7.10;62.20;;;;;;4926149;28;115142;-79
2024/01/11 05:58:24;;;;;;;14.15;7.00;;;-7.10;62.20;;;;;;4923356;28;114660;-79
2024/01/11 06:00:51;;;;;;;14.35;6.00;;;-7.00;62.20;;;;;;4925511;28;114740;-80
2024/01/11 06:03:19;;;;;;;27.83;7.78;;;-7.00;62.20;;;;;;4924701;28;117124;-80
2024/01/11 06:05:49;;;;;;;15.68;8.07;;;-7.00;62.20;;;;;;4939287;28;115199;-79
2024/01/11 06:08:17;;;;;;;20.35;9.50;;;-7.00;62.20;;;;;;4919157;28;115729;-79
2024/01/11 06:10:44;;;;;;;16.40;7.50;;;-6.90;62.20;;;;;;4918602;28;114508;-78
2024/01/11 06:13:14;;;;;;;13.45;6.90;;;-6.90;62.20;;;;;;4914191;28;114697;-79
2024/01/11 06:15:42;;;;;;;18.00;9.10;;;-6.90;62.30;;;;;;4922130;28;118863;-79
2024/01/11 06:18:09;;;;;;;18.55;8.48;;;-6.90;62.30;;;;;;4922595;28;114866;-80
2024/01/11 06:20:37;;;;;;;17.63;9.15;;;-6.90;62.20;;;;;;4924235;28;114372;-79
2024/01/11 06:23:04;;;;;;;13.60;6.20;;;-7.00;62.10;;;;;;4908012;28;114960;-80
2024/01/11 06:25:32;;;;;;;19.55;8.45;;;-6.90;62.10;;;;;;4940681;28;115662;-79
2024/01/11 06:27:59;;;;;;;17.23;6.38;;;-6.90;62.10;;;;;;4938896;28;114599;-81
2024/01/11 06:30:26;;;;;;;14.20;8.82;;;-6.90;62.10;;;;;;4926509;28;114467;-79
2024/01/11 06:32:54;;;;;;;21.88;10.38;;;-7.00;62.00;;;;;;4926598;28;114520;-79
2024/01/11 06:35:22;;;;;;;24.95;11.68;;;-7.00;62.00;;;;;;4940295;28;115380;-79
2024/01/11 06:37:50;;;;;;;14.95;7.15;;;-7.00;62.00;;;;;;4925367;28;114864;-81
2024/01/11 06:40:19;;;;;;;15.68;8.95;;;-7.00;62.00;;;;;;4926068;28;114741;-80
2024/01/11 06:42:46;;;;;;;19.48;6.60;;;-7.00;62.10;;;;;;4925399;28;114585;-79
2024/01/11 06:45:17;;;;;;;20.40;9.60;;;-6.90;62.10;;;;;;4925138;28;115657;-80
2024/01/11 06:47:47;;;;;;;16.48;8.30;;;-6.90;62.10;;;;;;4924002;28;116952;-80
2024/01/11 06:50:15;;;;;;;26.77;10.63;;;-6.90;62.20;;;;;;4925856;28;114650;-80
2024/01/11 06:52:42;;;;;;;13.18;7.25;;;-6.80;62.30;;;;;;4926405;28;114644;-80
2024/01/11 06:55:10;;;;;;;18.98;6.97;;;-6.80;62.30;;;;;;4923958;28;117857;-79
2024/01/11 06:57:38;;;;;;;16.92;7.90;;;-6.80;62.30;;;;;;4939716;28;115730;-79
2024/01/11 07:00:07;;;;;;;13.45;6.30;;;-6.70;62.30;;;;;;4924064;28;114398;-80
2024/01/11 07:02:35;;;;;;;11.50;5.93;;;-6.70;62.30;;;;;;4915678;28;114584;-79
2024/01/11 07:05:02;;;;;;;15.90;6.80;;;-6.70;62.00;;;;;;4924414;28;116287;-79
2024/01/11 07:07:30;;;;;;;10.70;6.47;;;-6.60;62.00;;;;;;4910071;28;114600;-78
2024/01/11 07:09:57;;;;;;;20.80;7.30;;;-6.70;62.10;;;;;;4930239;28;114759;-79
2024/01/11 07:12:25;;;;;;;19.17;7.43;;;-6.70;62.20;;;;;;4921392;28;114382;-79
2024/01/11 07:14:52;;;;;;;16.23;7.20;;;-6.60;62.30;;;;;;4920994;28;118407;-79
2024/01/11 07:17:20;;;;;;;18.77;7.38;;;-6.60;62.30;;;;;;4905782;28;114724;-79
2024/01/11 07:19:48;;;;;;;16.75;8.45;;;-6.50;62.30;;;;;;4923586;28;114695;-79
2024/01/11 07:22:15;;;;;;;22.58;7.10;;;-6.40;62.30;;;;;;4925983;28;114513;-80
2024/01/11 07:24:42;;;;;;;10.35;6.40;;;-6.30;62.30;;;;;;4917608;28;116764;-80
2024/01/11 07:27:10;;;;;;;24.50;9.48;;;-6.30;62.10;;;;;;4908956;28;114765;-79
2024/01/11 07:29:41;;;;;;;23.85;11.88;;;-6.20;62.20;;;;;;4924074;28;115371;-80
2024/01/11 07:32:09;;;;;;;11.20;6.30;;;-6.00;62.20;;;;;;4923714;28;115391;-81
2024/01/11 07:34:36;;;;;;;16.48;7.70;;;-5.80;62.20;;;;;;4910220;28;116313;-80
2024/01/11 07:37:09;;;;;;;21.15;8.55;;;-5.70;62.10;;;;;;4914569;28;115048;-82
2024/01/11 07:39:37;;;;;;;21.05;8.73;;;-5.60;62.00;;;;;;4915089;28;114599;-80
2024/01/11 07:42:07;;;;;;;17.30;7.93;;;-5.40;62.00;;;;;;4914692;28;114627;-80
2024/01/11 07:44:35;;;;;;;11.88;6.75;;;-5.30;61.90;;;;;;4922280;28;116345;-81
2024/01/11 07:47:02;;;;;;;21.73;8.18;;;-5.20;61.80;;;;;;4927910;28;114787;-79
2024/01/11 07:49:30;;;;;;;18.02;7.45;;;-5.10;61.70;;;;;;4924092;28;118108;-79
2024/01/11 07:51:59;;;;;;;19.55;6.80;;;-4.90;61.70;;;;;;4942057;28;114644;-80
2024/01/11 07:54:26;;;;;;;20.33;7.97;;;-4.80;61.50;;;;;;4925639;28;115068;-80
2024/01/11 07:56:54;;;;;;;23.08;8.00;;;-4.80;61.40;;;;;;4921670;28;114727;-80
2024/01/11 07:59:24;;;;;;;15.85;4.95;;;-4.70;61.10;;;;;;4914401;28;115460;-79
2024/01/11 08:01:53;;;;;;;17.17;7.85;;;-4.50;60.90;;;;;;4923487;28;114869;-80
2024/01/11 08:04:20;;;;;;;17.33;8.73;;;-4.50;60.90;;;;;;4909757;28;115224;-80
2024/01/11 08:06:49;;;;;;;8.45;3.92;;;-4.40;61.00;;;;;;4922469;28;114645;-80
2024/01/11 08:09:18;;;;;;;5.00;3.55;;;-4.30;60.80;;;;;;4920581;28;114837;-79
2024/01/11 08:12:03;;;;;;;17.65;10.05;;;-4.30;60.80;;;;;;4912454;28;116811;-80
2024/01/11 08:14:31;;;;;;;14.27;7.65;;;-4.20;60.70;;;;;;4921062;28;116279;-82
2024/01/11 08:16:58;;;;;;;10.05;8.70;;;-4.10;60.80;;;;;;4915738;28;115140;-80
2024/01/11 08:19:28;;;;;;;23.13;9.85;;;-4.00;60.50;;;;;;4926626;28;114661;-79
2024/01/11 08:21:56;;;;;;;15.18;6.88;;;-3.90;60.50;;;;;;4941166;28;114635;-80
2024/01/11 08:24:26;;;;;;;8.18;5.75;;;-3.80;60.40;;;;;;4925109;28;115650;-80
2024/01/11 08:26:57;;;;;;;17.88;8.93;;;-3.70;60.30;;;;;;4921872;28;116173;-79
2024/01/11 08:29:25;;;;;;;10.52;4.15;;;-3.60;60.30;;;;;;4920089;28;114507;-81
2024/01/11 08:31:54;;;;;;;9.38;4.75;;;-3.60;60.40;;;;;;4936618;28;114715;-81
2024/01/11 08:34:22;;;;;;;8.77;4.82;;;-3.40;60.40;;;;;;4938802;28;115029;-80
2024/01/11 08:36:49;;;;;;;8.35;5.55;;;-3.30;60.20;;;;;;4924844;28;115095;-80
2024/01/11 08:39:17;;;;;;;9.48;4.10;;;-3.30;60.20;;;;;;4912996;28;115291;-81
2024/01/11 08:41:44;;;;;;;26.58;10.65;;;-3.20;60.20;;;;;;4909168;28;114782;-81
2024/01/11 08:44:13;;;;;;;45.20;17.77;;;-3.00;60.00;;;;;;4925473;28;115133;-81
2024/01/11 08:46:40;;;;;;;37.13;15.38;;;-2.90;59.90;;;;;;4940321;28;115080;-80
2024/01/11 08:49:08;;;;;;;38.35;18.00;;;-2.80;59.40;;;;;;4921347;28;114872;-79
2024/01/11 08:51:36;;;;;;;45.53;21.83;;;-2.80;59.20;;;;;;4936569;28;114639;-80
2024/01/11 08:54:04;;;;;;;45.33;19.42;;;-2.70;59.20;;;;;;4903783;28;116114;-80
2024/01/11 08:56:32;;;;;;;37.60;19.45;;;-2.70;59.00;;;;;;4923871;28;115320;-81
2024/01/11 08:59:00;;;;;;;35.53;16.27;;;-2.60;58.80;;;;;;4942147;28;114681;-80
2024/01/11 09:01:28;;;;;;;40.53;17.70;;;-2.50;58.60;;;;;;4912941;28;117731;-82
2024/01/11 09:03:57;;;;;;;41.97;18.67;;;-2.40;58.50;;;;;;4906376;28;115138;-81
2024/01/11 09:06:29;;;;;;;35.60;16.20;;;-2.30;58.50;;;;;;4905988;28;115811;-80
2024/01/11 09:08:57;;;;;;;37.08;17.13;;;-2.20;58.40;;;;;;4917737;28;114971;-80
2024/01/11 09:11:25;;;;;;;42.25;18.50;;;-2.10;58.30;;;;;;4924476;28;114635;-81
2024/01/11 09:13:57;;;;;;;49.75;18.35;;;-2.10;58.20;;;;;;4928465;28;115558;-81
2024/01/11 09:16:29;;;;;;;41.88;20.35;;;-2.00;58.10;;;;;;4927590;28;117412;-80
2024/01/11 09:18:56;;;;;;;52.22;20.73;;;-1.90;58.10;;;;;;4906620;28;114730;-81
2024/01/11 09:21:24;;;;;;;57.10;22.45;;;-1.90;58.00;;;;;;4925363;28;115151;-81
2024/01/11 09:23:51;;;;;;;46.25;22.27;;;-1.90;57.80;;;;;;4925827;28;115133;-81
2024/01/11 09:26:18;;;;;;;49.75;22.23;;;-1.90;57.70;;;;;;4925830;28;115314;-79
2024/01/11 09:28:46;;;;;;;47.78;22.77;;;-1.90;57.80;;;;;;4940869;28;114875;-81
2024/01/11 09:31:13;;;;;;;47.88;23.80;;;-1.90;57.70;;;;;;4926578;28;114645;-80
2024/01/11 09:33:45;;;;;;;51.95;24.13;;;-1.80;57.70;;;;;;4936821;28;116924;-81
2024/01/11 09:36:13;;;;;;;47.53;22.02;;;-1.70;57.80;;;;;;4908443;28;114754;-80
2024/01/11 09:38:48;;;;;;;49.42;23.20;;;-1.70;57.80;;;;;;4909229;28;114311;-82
2024/01/11 09:41:15;;;;;;;49.17;23.13;;;-1.70;57.80;;;;;;4913948;28;114569;-80
2024/01/11 09:43:43;;;;;;;49.97;21.67;;;-1.60;57.70;;;;;;4923538;28;115277;-79
2024/01/11 09:46:10;;;;;;;53.45;23.98;;;-1.50;57.70;;;;;;4913886;28;114915;-81
2024/01/11 09:48:39;;;;;;;49.97;23.35;;;-1.50;57.60;;;;;;4930934;28;114449;-80
2024/01/11 09:51:12;;;;;;;51.15;24.75;;;-1.40;57.50;;;;;;4907682;28;114612;-81
2024/01/11 09:53:39;;;;;;;49.55;24.95;;;-1.40;57.50;;;;;;4906954;28;116397;-82
2024/01/11 09:56:10;;;;;;;49.70;22.80;;;-1.30;57.60;;;;;;4923215;28;115176;-82
2024/01/11 09:58:38;;;;;;;50.95;24.83;;;-1.30;57.50;;;;;;4926555;28;115217;-81
2024/01/11 10:01:10;;;;;;;48.22;23.08;;;-1.30;57.40;;;;;;4927239;28;114403;-81
2024/01/11 10:03:40;;;;;;;47.53;23.70;;;-1.30;57.30;;;;;;4910850;28;115492;-80
2024/01/11 10:06:07;;;;;;;46.53;22.25;;;-1.20;57.40;;;;;;4912602;28;116960;-80
2024/01/11 10:08:35;;;;;;;47.92;21.02;;;-1.20;57.30;;;;;;4929778;28;114409;-80
2024/01/11 10:11:05;;;;;;;48.03;22.27;;;-1.20;57.20;;;;;;4928966;28;114425;-81
2024/01/11 10:13:32;;;;;;;46.42;21.38;;;-1.20;57.00;;;;;;4927486;28;115440;-80
2024/01/11 10:16:10;;;;;;;48.60;21.13;;;-1.20;57.10;;;;;;4895372;28;116056;-79
2024/01/11 10:18:38;;;;;;;47.80;21.85;;;-1.10;57.00;;;;;;4908802;28;114256;-80
2024/01/11 10:21:09;;;;;;;45.03;22.00;;;-1.10;57.00;;;;;;4913772;28;114465;-80
2024/01/11 10:23:45;;;;;;;44.70;21.70;;;-1.10;57.10;;;;;;4919269;28;117884;-81
2024/01/11 10:26:18;;;;;;;44.58;21.92;;;-1.10;57.10;;;;;;4907681;28;115024;-80
2024/01/11 10:28:46;;;;;;;45.83;22.40;;;-1.10;57.10;;;;;;4922281;28;114351;-80
2024/01/11 10:31:17;;;;;;;43.45;21.75;;;-1.10;57.10;;;;;;4922369;28;114873;-80
2024/01/11 10:33:45;;;;;;;48.78;20.52;;;-1.00;57.10;;;;;;4924490;28;115278;-79
2024/01/11 10:36:13;;;;;;;49.97;22.10;;;-0.90;57.10;;;;;;4930792;28;115784;-79
2024/01/11 10:38:40;;;;;;;48.55;22.00;;;-0.90;57.00;;;;;;4922734;28;114502;-80
2024/01/11 10:41:08;;;;;;;43.92;19.95;;;-0.90;57.10;;;;;;4907770;28;114560;-80
2024/01/11 10:43:37;;;;;;;46.30;22.38;;;-0.90;57.00;;;;;;4907189;28;115157;-80
2024/01/11 10:46:06;;;;;;;45.92;19.70;;;-0.90;57.00;;;;;;4908389;28;114769;-80
2024/01/11 10:48:38;;;;;;;39.65;19.50;;;-0.90;57.10;;;;;;4906647;28;114516;-80
2024/01/11 10:51:09;;;;;;;37.45;18.27;;;-0.80;57.20;;;;;;4912336;28;114771;-81
2024/01/11 10:53:47;;;;;;;31.25;16.50;;;-0.80;57.20;;;;;;4908991;28;115325;-81
2024/01/11 10:56:18;;;;;;;38.67;17.55;;;-0.80;57.00;;;;;;4895878;28;116015;-80
2024/01/11 10:58:48;;;;;;;41.00;16.92;;;-0.80;57.00;;;;;;4925796;28;114975;-80
2024/01/11 11:01:15;;;;;;;34.88;16.88;;;-0.80;57.00;;;;;;4910502;28;114749;-81
2024/01/11 11:03:44;;;;;;;37.60;16.70;;;-0.80;57.00;;;;;;4891228;28;117185;-80
2024/01/11 11:06:12;;;;;;;31.50;15.65;;;-0.80;56.90;;;;;;4889791;28;115027;-80
2024/01/11 11:08:43;;;;;;;39.17;18.65;;;-0.80;56.80;;;;;;4925032;28;114306;-80
2024/01/11 11:11:10;;;;;;;37.33;18.67;;;-0.80;56.90;;;;;;4877672;28;114463;-80
2024/01/11 11:13:38;;;;;;;36.92;17.85;;;-0.80;56.90;;;;;;4892095;28;115191;-81
2024/01/11 11:16:09;;;;;;;37.72;18.50;;;-0.80;57.00;;;;;;4892104;28;114686;-80
2024/01/11 11:18:37;;;;;;;37.10;17.48;;;-0.80;57.00;;;;;;4875674;28;114649;-81
2024/01/11 11:21:11;;;;;;;34.83;18.00;;;-0.70;57.00;;;;;;4917387;28;114549;-79
2024/01/11 11:23:39;;;;;;;34.83;18.30;;;-0.70;56.90;;;;;;4924753;28;115203;-81
2024/01/11 11:26:17;;;;;;;31.48;17.17;;;-0.60;57.10;;;;;;4905944;28;114855;-81
2024/01/11 11:28:49;;;;;;;33.78;16.20;;;-0.50;56.90;;;;;;4891561;28;114483;-81
2024/01/11 11:31:35;;;;;;;36.28;17.60;;;-0.40;56.90;;;;;;4892152;28;114299;-80
2024/01/11 11:34:05;;;;;;;35.53;16.83;;;-0.30;56.80;;;;;;4889334;28;117891;-80
2024/01/11 11:36:34;;;;;;;35.05;18.25;;;-0.30;56.80;;;;;;4921022;28;114583;-81
2024/01/11 11:39:03;;;;;;;33.28;17.38;;;-0.20;56.70;;;;;;4927080;28;114410;-80
2024/01/11 11:41:33;;;;;;;38.58;18.65;;;-0.20;56.60;;;;;;4942168;28;114239;-80
2024/01/11 11:44:05;;;;;;;35.42;16.50;;;-0.10;56.50;;;;;;4909177;28;115073;-80
2024/01/11 11:46:33;;;;;;;36.88;17.73;;;-0.10;56.40;;;;;;4941398;28;115423;-80
2024/01/11 11:49:00;;;;;;;33.47;17.08;;;-0.10;56.50;;;;;;4941943;28;114722;-79
2024/01/11 11:51:29;;;;;;;33.20;16.13;;;0.00;56.50;;;;;;4940916;28;114546;-81
2024/01/11 11:53:56;;;;;;;33.60;16.63;;;0.00;56.40;;;;;;4939834;28;115324;-81
2024/01/11 11:56:24;;;;;;;32.45;16.40;;;0.00;56.30;;;;;;4939960;28;115049;-81
2024/01/11 11:58:53;;;;;;;29.33;15.05;;;0.10;56.20;;;;;;4921742;28;114651;-80
2024/01/11 12:01:20;;;;;;;29.60;15.98;;;0.00;56.20;;;;;;4909857;28;114811;-82
2024/01/11 12:03:51;;;;;;;32.35;16.58;;;0.00;56.20;;;;;;4919477;28;116491;-81
2024/01/11 12:06:22;;;;;;;32.13;16.77;;;0.10;56.10;;;;;;4923468;28;116416;-80
2024/01/11 12:08:55;;;;;;;29.52;16.52;;;0.10;56.00;;;;;;4924328;28;114457;-80
2024/01/11 12:11:24;;;;;;;;;;;0.10;55.80;;;;;;4924783;28;114440;-79
2024/01/11 12:13:53;;;;;;;35.40;15.45;;;0.10;56.00;;;;;;4926164;28;115501;-80
2024/01/11 12:16:21;;;;;;;33.28;16.33;;;0.10;55.90;;;;;;4940778;28;114733;-80
2024/01/11 12:18:49;;;;;;;32.40;15.77;;;0.10;55.90;;;;;;4908187;28;114805;-80
2024/01/11 12:21:17;;;;;;;31.83;16.45;;;0.10;56.00;;;;;;4920653;28;114616;-80
2024/01/11 12:23:44;;;;;;;29.02;15.32;;;0.10;55.90;;;;;;4900819;28;116740;-80
2024/01/11 12:26:12;;;;;;;29.67;15.93;;;0.10;55.90;;;;;;4915418;28;114572;-83
2024/01/11 12:28:43;;;;;;;30.48;16.40;;;0.20;55.90;;;;;;4927480;28;114239;-79
2024/01/11 12:31:12;;;;;;;32.65;16.25;;;0.20;55.80;;;;;;4926202;28;114934;-80